createdAt,value
2018-06-23T00:00:02.164Z,55.20
2018-06-23T00:02:29.943Z,55.20
2018-06-23T00:04:57.666Z,55.40
2018-06-23T00:07:25.472Z,55.30
2018-06-23T00:09:53.831Z,55.30
2018-06-23T00:12:21.582Z,55.30
2018-06-23T00:14:49.348Z,55.50
2018-06-23T00:17:17.121Z,55.50
2018-06-23T00:19:44.884Z,55.60
2018-06-23T00:22:12.637Z,55.00
2018-06-23T00:24:40.395Z,55.10
2018-06-23T00:27:08.113Z,55.80
2018-06-23T00:29:35.831Z,56.40
2018-06-23T00:32:03.586Z,55.70
2018-06-23T00:34:31.283Z,55.20
2018-06-23T00:36:59.001Z,54.40
2018-06-23T00:39:26.715Z,54.20
2018-06-23T00:41:54.429Z,54.80
2018-06-23T00:44:23.289Z,55.20
2018-06-23T00:46:51.019Z,54.70
2018-06-23T00:49:18.771Z,55.00
2018-06-23T00:51:46.483Z,56.10
2018-06-23T00:54:14.211Z,57.40
2018-06-23T00:56:41.955Z,57.00
2018-06-23T00:59:42.561Z,57.00
2018-06-23T01:02:10.320Z,56.40
2018-06-23T01:04:38.299Z,56.60
2018-06-23T01:07:07.520Z,56.70
2018-06-23T01:09:35.323Z,56.70
2018-06-23T01:14:31.230Z,57.30
2018-06-23T01:16:58.992Z,57.60
2018-06-23T01:19:26.714Z,57.00
2018-06-23T01:21:54.833Z,57.30
2018-06-23T01:24:22.528Z,58.10
2018-06-23T01:29:18.018Z,57.00
2018-06-23T01:31:45.922Z,56.00
2018-06-23T01:34:13.642Z,55.50
2018-06-23T01:36:41.558Z,55.40
2018-06-23T01:39:10.967Z,55.60
2018-06-23T01:41:38.931Z,55.20
2018-06-23T01:44:06.800Z,55.00
2018-06-23T01:46:34.545Z,55.20
2018-06-23T01:49:02.476Z,55.70
2018-06-23T01:51:30.175Z,55.00
2018-06-23T01:53:58.063Z,55.20
2018-06-23T01:56:25.828Z,54.60
2018-06-23T01:58:53.577Z,54.60
2018-06-23T02:03:49.021Z,55.70
2018-06-23T02:06:17.525Z,55.90
2018-06-23T02:08:45.328Z,55.90
2018-06-23T02:11:13.081Z,56.30
2018-06-23T02:13:40.762Z,55.60
2018-06-23T02:16:14.187Z,54.80
2018-06-23T02:18:47.760Z,54.20
2018-06-23T02:21:21.283Z,54.20
2018-06-23T02:26:28.449Z,54.60
2018-06-23T02:31:04.502Z,53.80
2018-06-23T02:33:37.795Z,54.30
2018-06-23T02:36:05.520Z,55.10
2018-06-23T02:38:33.235Z,55.20
2018-06-23T02:41:00.946Z,55.10
2018-06-23T02:43:28.653Z,54.90
2018-06-23T02:45:56.351Z,54.00
2018-06-23T02:48:25.051Z,54.20
2018-06-23T02:50:52.737Z,54.60
2018-06-23T02:53:20.432Z,53.80
2018-06-23T02:55:48.170Z,53.60
2018-06-23T02:58:16.008Z,53.20
2018-06-23T03:00:44.523Z,52.80
2018-06-23T03:05:52.561Z,53.60
2018-06-23T03:08:20.255Z,53.80
2018-06-23T03:10:47.983Z,53.20
2018-06-23T03:13:15.747Z,54.20
2018-06-23T03:15:43.458Z,54.00
2018-06-23T03:18:11.633Z,53.50
2018-06-23T03:20:39.537Z,53.30
2018-06-23T03:23:07.255Z,53.00
2018-06-23T03:25:35.487Z,53.20
2018-06-23T03:28:03.205Z,52.90
2018-06-23T03:30:30.898Z,52.40
2018-06-23T03:32:58.681Z,52.30
2018-06-23T03:35:26.398Z,53.20
2018-06-23T03:37:54.418Z,53.30
2018-06-23T03:40:22.130Z,53.50
2018-06-23T03:42:50.377Z,53.50
2018-06-23T03:45:18.116Z,53.00
2018-06-23T03:47:45.833Z,52.60
2018-06-23T03:50:13.610Z,52.80
2018-06-23T03:52:41.326Z,53.30
2018-06-23T03:55:09.047Z,53.30
2018-06-23T03:57:36.735Z,53.10
2018-06-23T04:00:04.776Z,54.20
2018-06-23T04:02:32.483Z,53.60
2018-06-23T04:05:00.241Z,53.40
2018-06-23T04:07:27.964Z,53.00
2018-06-23T04:09:55.666Z,52.50
2018-06-23T04:12:23.357Z,52.60
2018-06-23T04:14:51.070Z,52.70
2018-06-23T04:17:18.742Z,53.10
2018-06-23T04:19:46.455Z,53.00
2018-06-23T04:22:14.667Z,53.50
2018-06-23T04:24:42.382Z,52.80
2018-06-23T04:27:10.089Z,52.50
2018-06-23T04:29:37.799Z,54.00
2018-06-23T04:32:05.899Z,53.50
2018-06-23T04:34:33.622Z,53.80
2018-06-23T04:37:01.363Z,53.50
2018-06-23T04:39:29.139Z,53.60
2018-06-23T04:41:56.877Z,53.60
2018-06-23T04:44:24.594Z,53.40
2018-06-23T04:46:52.327Z,53.30
2018-06-23T04:51:47.740Z,52.00
2018-06-23T04:54:15.479Z,53.20
2018-06-23T04:56:43.183Z,53.10
2018-06-23T04:59:10.890Z,54.30
2018-06-23T05:01:38.545Z,54.60
2018-06-23T05:04:06.289Z,54.30
2018-06-23T05:06:34.013Z,55.20
2018-06-23T05:09:01.711Z,55.00
2018-06-23T05:11:29.423Z,55.80
2018-06-23T05:13:57.330Z,55.00
2018-06-23T05:16:25.034Z,55.50
2018-06-23T05:18:53.213Z,54.70
2018-06-23T05:21:20.991Z,54.40
2018-06-23T05:23:48.727Z,55.70
2018-06-23T05:26:16.449Z,57.10
2018-06-23T05:28:44.142Z,56.90
2018-06-23T05:31:11.867Z,56.50
2018-06-23T05:33:39.630Z,57.10
2018-06-23T05:36:07.679Z,56.60
2018-06-23T05:38:35.445Z,58.60
2018-06-23T05:41:03.173Z,59.70
2018-06-23T05:43:31.010Z,59.00
2018-06-23T05:45:58.828Z,58.70
2018-06-23T05:48:27.925Z,58.00
2018-06-23T05:50:55.862Z,56.10
2018-06-23T05:53:23.792Z,57.70
2018-06-23T05:58:19.580Z,58.30
2018-06-23T06:00:47.570Z,59.00
2018-06-23T06:03:15.673Z,59.60
2018-06-23T06:05:43.411Z,58.30
2018-06-23T06:08:11.125Z,58.80
2018-06-23T06:10:38.885Z,59.50
2018-06-23T06:13:06.610Z,58.80
2018-06-23T06:15:34.316Z,57.50
2018-06-23T06:18:02.057Z,58.00
2018-06-23T06:20:29.815Z,58.50
2018-06-23T06:22:57.685Z,57.50
2018-06-23T06:25:25.408Z,56.30
2018-06-23T06:27:53.123Z,55.80
2018-06-23T06:32:48.935Z,56.10
2018-06-23T06:35:16.695Z,55.70
2018-06-23T06:37:44.399Z,54.80
2018-06-23T06:42:39.849Z,54.10
2018-06-23T06:45:07.603Z,53.70
2018-06-23T06:50:03.789Z,54.90
2018-06-23T06:52:31.532Z,55.70
2018-06-23T06:54:59.263Z,56.70
2018-06-23T06:57:26.998Z,56.10
2018-06-23T06:59:55.299Z,56.10
2018-06-23T07:02:23.017Z,56.10
2018-06-23T07:04:50.727Z,56.20
2018-06-23T07:07:18.435Z,56.10
2018-06-23T07:09:46.155Z,57.60
2018-06-23T07:12:14.082Z,58.70
2018-06-23T07:14:41.829Z,60.80
2018-06-23T07:17:09.555Z,59.80
2018-06-23T07:19:37.371Z,60.10
2018-06-23T07:22:05.087Z,60.10
2018-06-23T07:24:32.933Z,59.10
2018-06-23T07:27:00.743Z,57.70
2018-06-23T07:29:28.370Z,58.20
2018-06-23T07:31:56.143Z,58.50
2018-06-23T07:34:23.898Z,58.50
2018-06-23T07:36:51.579Z,57.10
2018-06-23T07:39:19.274Z,56.50
2018-06-23T07:41:47.318Z,56.90
2018-06-23T07:44:15.078Z,56.70
2018-06-23T07:46:42.893Z,57.10
2018-06-23T07:49:10.511Z,57.30
2018-06-23T07:51:38.201Z,56.70
2018-06-23T07:54:05.926Z,55.70
2018-06-23T07:56:33.684Z,54.90
2018-06-23T07:59:01.420Z,54.10
2018-06-23T08:01:29.188Z,54.40
2018-06-23T08:03:56.863Z,53.60
2018-06-23T08:06:24.608Z,52.70
2018-06-23T08:08:52.337Z,53.60
2018-06-23T08:11:20.038Z,53.80
2018-06-23T08:16:15.779Z,52.60
2018-06-23T08:18:43.535Z,51.60
2018-06-23T08:21:11.239Z,51.90
2018-06-23T08:23:38.960Z,52.70
2018-06-23T08:26:06.938Z,53.00
2018-06-23T08:31:03.571Z,54.20
2018-06-23T08:33:31.512Z,55.20
2018-06-23T08:35:59.313Z,54.40
2018-06-23T08:38:27.086Z,53.60
2018-06-23T08:40:54.833Z,52.20
2018-06-23T08:43:22.568Z,52.40
2018-06-23T08:45:51.125Z,52.10
2018-06-23T08:48:18.911Z,51.70
2018-06-23T08:50:46.597Z,52.70
2018-06-23T08:53:14.454Z,52.40
2018-06-23T08:55:42.211Z,51.80
2018-06-23T08:58:09.968Z,51.20
2018-06-23T09:00:37.671Z,51.70
2018-06-23T09:05:33.275Z,51.10
2018-06-23T09:08:04.099Z,50.30
2018-06-23T09:10:31.847Z,50.00
2018-06-23T09:12:59.568Z,50.50
2018-06-23T09:15:27.346Z,51.30
2018-06-23T09:20:22.826Z,51.20
2018-06-23T09:22:50.533Z,50.60
2018-06-23T09:25:18.284Z,50.80
2018-06-23T09:27:45.981Z,50.20
2018-06-23T09:32:41.560Z,51.20
2018-06-23T09:35:09.299Z,51.70
2018-06-23T09:40:05.404Z,53.00
2018-06-23T09:42:33.161Z,52.90
2018-06-23T09:45:00.861Z,53.70
2018-06-23T09:47:28.597Z,54.20
2018-06-23T09:49:56.329Z,54.30
2018-06-23T09:52:24.058Z,53.70
2018-06-23T09:54:51.814Z,53.40
2018-06-23T09:57:19.600Z,52.80
2018-06-23T09:59:47.322Z,51.90
2018-06-23T10:02:15.088Z,50.80
2018-06-23T10:04:42.841Z,50.70
2018-06-23T10:07:10.600Z,51.30
2018-06-23T10:09:38.358Z,50.90
2018-06-23T10:12:06.819Z,50.70
2018-06-23T10:14:34.642Z,49.20
2018-06-23T10:17:02.441Z,49.00
2018-06-23T10:19:30.194Z,48.50
2018-06-23T10:21:57.962Z,49.30
2018-06-23T10:24:25.738Z,49.10
2018-06-23T10:26:53.541Z,48.70
2018-06-23T10:29:21.338Z,49.10
2018-06-23T10:34:17.149Z,47.70
2018-06-23T10:36:44.914Z,47.50
2018-06-23T10:39:12.661Z,51.20
2018-06-23T10:41:40.664Z,52.20
2018-06-23T10:44:08.674Z,52.70
2018-06-23T10:46:36.435Z,52.80
2018-06-23T10:49:04.591Z,52.80
2018-06-23T10:51:32.479Z,51.80
2018-06-23T10:54:00.268Z,51.70
2018-06-23T10:56:28.132Z,52.10
2018-06-23T10:58:56.290Z,51.50
2018-06-23T11:01:24.016Z,51.00
2018-06-23T11:03:51.783Z,51.70
2018-06-23T11:06:19.485Z,51.60
2018-06-23T11:08:47.207Z,51.40
2018-06-23T11:11:15.019Z,50.70
2018-06-23T11:13:42.747Z,49.90
2018-06-23T11:16:10.480Z,50.00
2018-06-23T11:18:38.211Z,50.60
2018-06-23T11:21:06.185Z,50.60
2018-06-23T11:23:33.903Z,50.40
2018-06-23T11:26:01.598Z,48.40
2018-06-23T11:28:29.299Z,48.80
2018-06-23T11:30:57.034Z,47.20
2018-06-23T11:33:24.741Z,46.90
2018-06-23T11:35:53.106Z,46.20
2018-06-23T11:38:20.904Z,46.60
2018-06-23T11:40:48.643Z,48.20
2018-06-23T11:43:16.429Z,46.70
2018-06-23T11:45:44.176Z,45.00
2018-06-23T11:48:12.906Z,45.10
2018-06-23T11:50:40.659Z,44.30
2018-06-23T11:53:08.420Z,44.20
2018-06-23T11:55:36.145Z,43.90
2018-06-23T11:58:03.874Z,43.50
2018-06-23T12:00:31.618Z,44.30
2018-06-23T12:02:59.436Z,45.80
2018-06-23T12:05:27.886Z,44.90
2018-06-23T12:07:55.608Z,45.30
2018-06-23T12:10:24.140Z,45.50
2018-06-23T12:12:51.853Z,45.20
2018-06-23T12:15:19.625Z,44.70
2018-06-23T12:17:47.335Z,44.10
2018-06-23T12:20:15.087Z,44.10
2018-06-23T12:22:42.785Z,45.10
2018-06-23T12:25:10.485Z,45.20
2018-06-23T12:27:38.213Z,46.00
2018-06-23T12:30:06.255Z,45.90
2018-06-23T12:32:33.979Z,45.30
2018-06-23T12:35:01.702Z,43.70
2018-06-23T12:37:29.492Z,44.00
2018-06-23T12:39:57.605Z,44.60
2018-06-23T12:42:25.522Z,44.80
2018-06-23T12:44:53.213Z,43.50
2018-06-23T12:47:21.137Z,44.30
2018-06-23T12:49:48.911Z,43.30
2018-06-23T12:52:16.649Z,43.50
2018-06-23T12:54:44.327Z,42.40
2018-06-23T12:57:12.079Z,42.30
2018-06-23T12:59:39.899Z,42.00
2018-06-23T13:02:07.623Z,41.20
2018-06-23T13:04:35.380Z,39.90
2018-06-23T13:09:30.853Z,40.70
2018-06-23T13:11:58.595Z,39.20
2018-06-23T13:14:26.317Z,39.90
2018-06-23T13:16:54.108Z,39.20
2018-06-23T13:19:21.828Z,37.80
2018-06-23T13:21:49.657Z,36.40
2018-06-23T13:24:17.354Z,35.90
2018-06-23T13:26:45.094Z,35.90
2018-06-23T13:29:12.912Z,35.20
2018-06-23T13:31:40.723Z,36.80
2018-06-23T13:34:08.495Z,39.30
2018-06-23T13:36:36.250Z,40.00
2018-06-23T13:41:34.307Z,37.60
2018-06-23T13:44:02.136Z,37.80
2018-06-23T13:46:30.026Z,40.10
2018-06-23T13:48:57.750Z,39.50
2018-06-23T13:51:25.454Z,39.90
2018-06-23T13:53:53.212Z,41.30
2018-06-23T13:56:21.447Z,42.00
2018-06-23T13:58:49.312Z,42.20
2018-06-23T14:01:17.139Z,41.40
2018-06-23T14:03:44.969Z,40.40
2018-06-23T14:06:12.666Z,39.10
2018-06-23T14:08:40.486Z,38.40
2018-06-23T14:11:08.213Z,37.10
2018-06-23T14:16:03.931Z,35.80
2018-06-23T14:18:31.644Z,38.00
2018-06-23T14:20:59.685Z,37.40
2018-06-23T14:23:27.395Z,37.80
2018-06-23T14:25:55.138Z,36.60
2018-06-23T14:30:50.685Z,36.80
2018-06-23T14:33:18.467Z,35.70
2018-06-23T14:35:46.171Z,36.00
2018-06-23T14:38:13.915Z,35.70
2018-06-23T14:40:41.650Z,36.20
2018-06-23T14:43:09.422Z,35.70
2018-06-23T14:45:37.292Z,35.90
2018-06-23T14:48:05.090Z,34.80
2018-06-23T14:50:32.963Z,35.00
2018-06-23T14:53:00.735Z,34.20
2018-06-23T14:55:28.499Z,34.20
2018-06-23T14:57:56.344Z,34.70
2018-06-23T15:00:24.979Z,35.30
2018-06-23T15:02:52.815Z,36.60
2018-06-23T15:05:20.627Z,37.40
2018-06-23T15:07:48.416Z,37.10
2018-06-23T15:10:33.494Z,36.80
2018-06-23T15:13:15.159Z,37.20
2018-06-23T15:18:10.890Z,35.40
2018-06-23T15:20:39.227Z,35.50
2018-06-23T15:23:06.937Z,36.80
2018-06-23T15:25:34.793Z,35.00
2018-06-23T15:28:02.575Z,33.80
2018-06-23T15:30:30.472Z,33.40
2018-06-23T15:32:58.325Z,33.10
2018-06-23T15:35:26.071Z,32.00
2018-06-23T15:37:53.933Z,32.70
2018-06-23T15:40:21.840Z,34.20
2018-06-23T15:42:50.733Z,34.00
2018-06-23T15:45:18.520Z,33.00
2018-06-23T15:47:46.291Z,31.50
2018-06-23T15:50:14.193Z,30.80
2018-06-23T15:52:42.055Z,31.10
2018-06-23T15:57:37.746Z,33.80
2018-06-23T16:00:05.578Z,32.50
2018-06-23T16:02:33.380Z,31.60
2018-06-23T16:05:01.291Z,30.70
2018-06-23T16:12:24.703Z,32.00
2018-06-23T16:14:52.811Z,32.50
2018-06-23T16:17:20.600Z,32.50
2018-06-23T16:19:48.470Z,30.70
2018-06-23T16:22:16.619Z,29.90
2018-06-23T16:24:44.430Z,29.10
2018-06-23T16:27:12.464Z,29.20
2018-06-23T16:29:40.228Z,29.10
2018-06-23T16:32:07.957Z,29.20
2018-06-23T16:34:35.812Z,28.80
2018-06-23T16:37:03.479Z,28.20
2018-06-23T16:39:31.214Z,28.70
2018-06-23T16:41:59.189Z,29.90
2018-06-23T16:44:26.999Z,30.10
2018-06-23T16:46:54.962Z,31.20
2018-06-23T16:49:22.708Z,30.40
2018-06-23T16:51:50.418Z,30.00
2018-06-23T16:54:18.128Z,31.00
2018-06-23T16:56:45.850Z,31.50
2018-06-23T16:59:13.663Z,32.20
2018-06-23T17:04:09.273Z,32.30
2018-06-23T17:06:36.929Z,32.30
2018-06-23T17:09:07.671Z,31.70
2018-06-23T17:11:35.420Z,30.00
2018-06-23T17:14:03.192Z,29.50
2018-06-23T17:16:30.927Z,29.20
2018-06-23T17:18:58.718Z,29.50
2018-06-23T17:21:26.426Z,29.80
2018-06-23T17:23:54.233Z,29.30
2018-06-23T17:26:22.922Z,29.10
2018-06-23T17:28:50.738Z,29.00
2018-06-23T17:31:18.497Z,28.60
2018-06-23T17:33:46.375Z,28.60
2018-06-23T17:36:14.956Z,28.30
2018-06-23T17:38:42.705Z,29.00
2018-06-23T17:41:10.423Z,29.10
2018-06-23T17:46:06.099Z,30.60
2018-06-23T17:48:33.930Z,30.60
2018-06-23T17:51:01.748Z,30.50
2018-06-23T17:53:29.553Z,31.20
2018-06-23T17:55:57.426Z,31.20
2018-06-23T17:58:25.243Z,31.20
2018-06-23T18:00:53.002Z,31.10
2018-06-23T18:05:50.186Z,33.20
2018-06-23T18:08:19.279Z,33.90
2018-06-23T18:13:18.349Z,33.70
2018-06-23T18:18:16.278Z,34.00
2018-06-23T18:20:44.116Z,34.40
2018-06-23T18:23:11.827Z,34.00
2018-06-23T18:25:39.953Z,33.80
2018-06-23T18:28:07.678Z,34.10
2018-06-23T18:30:36.201Z,33.70
2018-06-23T18:33:04.054Z,34.20
2018-06-23T18:35:31.894Z,35.10
2018-06-23T18:40:27.448Z,35.80
2018-06-23T18:42:55.239Z,35.20
2018-06-23T18:45:23.017Z,34.90
2018-06-23T18:47:50.743Z,35.80
2018-06-23T18:50:18.487Z,35.30
2018-06-23T18:52:47.288Z,35.60
2018-06-23T18:55:15.011Z,36.00
2018-06-23T18:57:42.759Z,36.10
2018-06-23T19:00:10.542Z,35.40
2018-06-23T19:02:38.425Z,35.20
2018-06-23T19:05:06.133Z,35.40
2018-06-23T19:07:33.961Z,35.00
2018-06-23T19:10:01.751Z,35.70
2018-06-23T19:12:29.574Z,36.70
2018-06-23T19:14:57.942Z,36.20
2018-06-23T19:17:25.779Z,37.10
2018-06-23T19:19:53.651Z,37.80
2018-06-23T19:22:21.741Z,38.50
2018-06-23T19:24:49.558Z,38.40
2018-06-23T19:27:17.351Z,38.70
2018-06-23T19:29:45.323Z,39.00
2018-06-23T19:32:13.104Z,38.80
2018-06-23T19:34:41.579Z,39.40
2018-06-23T19:37:09.646Z,39.00
2018-06-23T19:39:37.438Z,39.40
2018-06-23T19:42:05.165Z,39.90
2018-06-23T19:44:33.178Z,39.70
2018-06-23T19:47:00.885Z,40.00
2018-06-23T19:49:28.805Z,40.50
2018-06-23T19:51:56.822Z,40.30
2018-06-23T19:54:25.421Z,39.80
2018-06-23T19:56:53.489Z,40.10
2018-06-23T20:01:49.034Z,40.70
2018-06-23T20:04:16.745Z,41.20
2018-06-23T20:06:48.100Z,41.00
2018-06-23T20:09:15.825Z,41.10
2018-06-23T20:11:43.643Z,40.90
2018-06-23T20:14:11.458Z,41.00
2018-06-23T20:19:07.109Z,41.30
2018-06-23T20:21:34.863Z,41.20
2018-06-23T20:24:02.633Z,41.90
2018-06-23T20:26:32.048Z,41.90
2018-06-23T20:29:03.032Z,41.70
2018-06-23T20:31:30.774Z,42.30
2018-06-23T20:33:58.527Z,42.10
2018-06-23T20:36:26.265Z,42.80
2018-06-23T20:38:53.968Z,42.90
2018-06-23T20:41:21.699Z,42.80
2018-06-23T20:43:49.395Z,42.60
2018-06-23T20:46:17.138Z,42.60
2018-06-23T20:48:45.594Z,42.90
2018-06-23T20:51:14.123Z,43.40
2018-06-23T20:53:43.215Z,44.00
2018-06-23T20:56:11.020Z,44.00
2018-06-23T20:58:39.771Z,44.90
2018-06-23T21:01:07.561Z,44.30
2018-06-23T21:03:35.280Z,44.00
2018-06-23T21:06:03.061Z,44.70
2018-06-23T21:08:31.065Z,44.30
2018-06-23T21:10:59.091Z,43.90
2018-06-23T21:13:26.814Z,43.60
2018-06-23T21:18:22.374Z,43.60
2018-06-23T21:20:50.069Z,43.70
2018-06-23T21:23:17.797Z,43.60
2018-06-23T21:25:45.540Z,43.80
2018-06-23T21:28:14.272Z,43.80
2018-06-23T21:30:42.184Z,43.50
2018-06-23T21:33:09.871Z,43.20
2018-06-23T21:35:40.679Z,43.40
2018-06-23T21:38:08.899Z,43.20
2018-06-23T21:40:36.935Z,43.20
2018-06-23T21:43:04.739Z,43.00
2018-06-23T21:45:32.473Z,42.80
2018-06-23T21:48:00.177Z,43.80
2018-06-23T21:50:28.331Z,43.80
2018-06-23T21:52:56.919Z,43.10
2018-06-23T21:55:24.854Z,42.60
2018-06-23T21:57:53.496Z,42.80
2018-06-23T22:00:43.239Z,43.20
2018-06-23T22:03:12.032Z,43.00
2018-06-23T22:05:39.847Z,43.50
2018-06-23T22:08:08.930Z,43.00
2018-06-23T22:10:37.548Z,43.20
2018-06-23T22:13:05.491Z,43.60
2018-06-23T22:18:01.032Z,43.30
2018-06-23T22:20:28.773Z,43.20
2018-06-23T22:22:56.559Z,43.50
2018-06-23T22:25:24.308Z,44.50
2018-06-23T22:27:52.183Z,45.00
2018-06-23T22:30:20.868Z,46.30
2018-06-23T22:32:48.633Z,45.50
2018-06-23T22:35:16.332Z,45.30
2018-06-23T22:37:44.072Z,45.00
2018-06-23T22:40:11.854Z,44.70
2018-06-23T22:42:39.807Z,44.90
2018-06-23T22:45:07.770Z,45.20
2018-06-23T22:47:35.506Z,45.30
2018-06-23T22:50:03.591Z,45.60
2018-06-23T22:52:32.469Z,45.90
2018-06-23T22:57:27.922Z,49.50
2018-06-23T22:59:55.661Z,50.30
2018-06-23T23:02:23.392Z,51.20
2018-06-23T23:04:51.143Z,52.20
2018-06-23T23:07:18.905Z,51.50
2018-06-23T23:09:46.678Z,52.10
2018-06-23T23:12:14.496Z,52.30
2018-06-23T23:14:42.175Z,51.30
2018-06-23T23:17:10.291Z,52.30
2018-06-23T23:19:37.984Z,51.70
2018-06-23T23:22:05.739Z,52.20
2018-06-23T23:24:33.450Z,51.70
2018-06-23T23:27:01.131Z,51.00
2018-06-23T23:29:28.874Z,50.30
2018-06-23T23:31:56.594Z,50.30
2018-06-23T23:34:24.329Z,49.50
2018-06-23T23:36:52.887Z,49.70
2018-06-23T23:39:20.650Z,49.10
2018-06-23T23:41:48.343Z,48.90
2018-06-23T23:44:16.055Z,48.70
2018-06-23T23:46:43.769Z,49.00
2018-06-23T23:49:11.476Z,48.90
2018-06-23T23:51:39.163Z,48.60
2018-06-23T23:54:06.919Z,48.70
2018-06-23T23:56:34.681Z,48.60
2018-06-23T23:59:02.493Z,49.10
